sensor_id;sensor_type;location;lat;lon;timestamp;noise_LAeq;noise_LA_min;noise_LA_max;noise_LA01;noise_LA95
64077;Laerm;51039;49.696;10.808;2023-11-19T00:01:14;92.39;40.22;110.37;;
64077;Laerm;51039;49.696;10.808;2023-11-19T00:03:40;101.95;40.15;111.02;;
64077;Laerm;51039;49.696;10.808;2023-11-19T00:06:05;103.19;96.49;104.74;;
64077;Laerm;51039;49.696;10.808;2023-11-19T00:08:31;103.14;96.30;104.80;;
64077;Laerm;51039;49.696;10.808;2023-11-19T00:10:56;103.21;101.59;105.55;;
64077;Laerm;51039;49.696;10.808;2023-11-19T00:13:21;101.80;89.89;106.74;;
64077;Laerm;51039;49.696;10.808;2023-11-19T00:15:48;97.08;39.66;109.96;;
64077;Laerm;51039;49.696;10.808;2023-11-19T00:18:13;102.69;40.09;107.01;;
64077;Laerm;51039;49.696;10.808;2023-11-19T00:20:39;67.95;39.12;88.90;;
64077;Laerm;51039;49.696;10.808;2023-11-19T00:23:04;64.06;38.85;84.80;;
64077;Laerm;51039;49.696;10.808;2023-11-19T00:25:30;81.40;38.75;108.75;;
64077;Laerm;51039;49.696;10.808;2023-11-19T00:27:55;88.27;38.92;108.54;;
64077;Laerm;51039;49.696;10.808;2023-11-19T00:30:21;95.42;39.45;110.36;;
64077;Laerm;51039;49.696;10.808;2023-11-19T00:32:47;97.17;39.30;110.59;;
64077;Laerm;51039;49.696;10.808;2023-11-19T00:35:12;103.18;-76.16;111.11;;
64077;Laerm;51039;49.696;10.808;2023-11-19T00:37:40;103.35;97.25;110.28;;
64077;Laerm;51039;49.696;10.808;2023-11-19T00:40:08;101.64;36.68;105.93;;
64077;Laerm;51039;49.696;10.808;2023-11-19T00:42:35;102.39;90.02;106.74;;
64077;Laerm;51039;49.696;10.808;2023-11-19T00:45:00;93.05;39.81;110.20;;
64077;Laerm;51039;49.696;10.808;2023-11-19T00:47:26;89.86;40.12;110.17;;
64077;Laerm;51039;49.696;10.808;2023-11-19T00:49:52;45.69;40.22;79.48;;
64077;Laerm;51039;49.696;10.808;2023-11-19T00:52:17;101.14;40.43;110.56;;
64077;Laerm;51039;49.696;10.808;2023-11-19T00:54:43;84.48;40.17;105.71;;
64077;Laerm;51039;49.696;10.808;2023-11-19T00:57:09;67.92;39.88;95.99;;
64077;Laerm;51039;49.696;10.808;2023-11-19T00:59:34;78.53;39.78;107.98;;
64077;Laerm;51039;49.696;10.808;2023-11-19T01:01:59;68.57;39.82;93.93;;
64077;Laerm;51039;49.696;10.808;2023-11-19T01:04:29;75.87;39.59;104.29;;
64077;Laerm;51039;49.696;10.808;2023-11-19T01:06:54;93.42;39.61;108.90;;
64077;Laerm;51039;49.696;10.808;2023-11-19T01:09:19;89.43;39.59;112.22;;
64077;Laerm;51039;49.696;10.808;2023-11-19T01:11:45;94.84;39.37;110.15;;
64077;Laerm;51039;49.696;10.808;2023-11-19T01:14:13;96.51;39.67;110.22;;
64077;Laerm;51039;49.696;10.808;2023-11-19T01:16:38;75.06;39.80;94.27;;
64077;Laerm;51039;49.696;10.808;2023-11-19T01:19:04;70.28;-91.42;101.92;;
64077;Laerm;51039;49.696;10.808;2023-11-19T01:21:30;68.51;39.09;100.03;;
64077;Laerm;51039;49.696;10.808;2023-11-19T01:23:57;40.30;38.78;53.32;;
64077;Laerm;51039;49.696;10.808;2023-11-19T01:26:22;40.11;38.65;41.30;;
64077;Laerm;51039;49.696;10.808;2023-11-19T01:28:48;71.97;38.59;100.15;;
64077;Laerm;51039;49.696;10.808;2023-11-19T01:31:17;87.95;38.45;109.87;;
64077;Laerm;51039;49.696;10.808;2023-11-19T01:33:42;71.67;38.20;98.31;;
64077;Laerm;51039;49.696;10.808;2023-11-19T01:36:08;63.34;37.10;92.83;;
64077;Laerm;51039;49.696;10.808;2023-11-19T01:38:34;39.02;37.26;40.90;;
64077;Laerm;51039;49.696;10.808;2023-11-19T01:41:00;67.30;37.65;88.23;;
64077;Laerm;51039;49.696;10.808;2023-11-19T01:43:37;53.42;36.26;82.52;;
64077;Laerm;51039;49.696;10.808;2023-11-19T01:46:05;65.04;35.71;92.96;;
64077;Laerm;51039;49.696;10.808;2023-11-19T01:48:34;51.18;36.69;80.27;;
64077;Laerm;51039;49.696;10.808;2023-11-19T01:51:01;52.55;36.98;85.75;;
64077;Laerm;51039;49.696;10.808;2023-11-19T01:53:28;38.19;36.45;44.19;;
64077;Laerm;51039;49.696;10.808;2023-11-19T01:55:54;64.30;36.47;99.83;;
64077;Laerm;51039;49.696;10.808;2023-11-19T01:58:21;69.93;36.69;97.39;;
64077;Laerm;51039;49.696;10.808;2023-11-19T02:00:48;38.02;36.54;42.14;;
64077;Laerm;51039;49.696;10.808;2023-11-19T02:03:14;69.65;37.03;97.79;;
64077;Laerm;51039;49.696;10.808;2023-11-19T02:05:40;60.08;37.04;88.53;;
64077;Laerm;51039;49.696;10.808;2023-11-19T02:08:06;80.94;37.26;103.55;;
64077;Laerm;51039;49.696;10.808;2023-11-19T02:10:32;77.52;37.45;100.11;;
64077;Laerm;51039;49.696;10.808;2023-11-19T02:12:58;76.71;37.51;100.31;;
64077;Laerm;51039;49.696;10.808;2023-11-19T02:15:24;64.57;37.45;96.34;;
64077;Laerm;51039;49.696;10.808;2023-11-19T02:17:52;76.72;37.33;102.65;;
64077;Laerm;51039;49.696;10.808;2023-11-19T02:20:18;39.56;37.32;46.57;;
64077;Laerm;51039;49.696;10.808;2023-11-19T02:22:46;76.79;37.41;95.14;;
64077;Laerm;51039;49.696;10.808;2023-11-19T02:25:17;85.74;37.78;100.77;;
64077;Laerm;51039;49.696;10.808;2023-11-19T02:27:58;43.93;37.61;61.69;;
64077;Laerm;51039;49.696;10.808;2023-11-19T02:30:25;48.45;45.70;60.94;;
64077;Laerm;51039;49.696;10.808;2023-11-19T02:33:00;47.85;44.65;50.20;;
64077;Laerm;51039;49.696;10.808;2023-11-19T02:35:31;45.28;42.17;48.18;;
64077;Laerm;51039;49.696;10.808;2023-11-19T02:37:58;41.82;39.21;44.39;;
64077;Laerm;51039;49.696;10.808;2023-11-19T02:40:25;39.38;37.34;41.63;;
64077;Laerm;51039;49.696;10.808;2023-11-19T02:42:51;38.08;36.53;39.83;;
64077;Laerm;51039;49.696;10.808;2023-11-19T02:45:16;37.57;36.13;40.58;;
64077;Laerm;51039;49.696;10.808;2023-11-19T02:47:42;40.09;36.12;72.53;;
64077;Laerm;51039;49.696;10.808;2023-11-19T02:50:11;73.66;36.18;97.36;;
64077;Laerm;51039;49.696;10.808;2023-11-19T02:52:44;55.17;35.94;89.06;;
64077;Laerm;51039;49.696;10.808;2023-11-19T02:55:11;37.27;35.90;38.69;;
64077;Laerm;51039;49.696;10.808;2023-11-19T02:57:44;37.26;35.94;39.67;;
64077;Laerm;51039;49.696;10.808;2023-11-19T03:00:21;37.12;35.77;39.78;;
64077;Laerm;51039;49.696;10.808;2023-11-19T03:02:51;49.42;35.84;85.51;;
64077;Laerm;51039;49.696;10.808;2023-11-19T03:05:35;36.90;35.58;40.81;;
64077;Laerm;51039;49.696;10.808;2023-11-19T03:08:00;44.18;35.67;79.49;;
64077;Laerm;51039;49.696;10.808;2023-11-19T03:10:25;77.19;35.76;99.37;;
64077;Laerm;51039;49.696;10.808;2023-11-19T03:12:51;44.19;35.43;79.49;;
64077;Laerm;51039;49.696;10.808;2023-11-19T03:15:16;81.84;35.88;108.09;;
64077;Laerm;51039;49.696;10.808;2023-11-19T03:17:42;89.49;35.79;109.68;;
64077;Laerm;51039;49.696;10.808;2023-11-19T03:20:11;75.14;35.84;97.92;;
64077;Laerm;51039;49.696;10.808;2023-11-19T03:22:40;37.31;35.82;40.21;;
64077;Laerm;51039;49.696;10.808;2023-11-19T03:25:07;53.44;35.79;89.59;;
64077;Laerm;51039;49.696;10.808;2023-11-19T03:27:35;65.27;35.86;95.82;;
64077;Laerm;51039;49.696;10.808;2023-11-19T03:30:02;54.59;35.73;90.76;;
64077;Laerm;51039;49.696;10.808;2023-11-19T03:32:28;66.33;35.86;89.23;;
64077;Laerm;51039;49.696;10.808;2023-11-19T03:34:53;69.52;35.70;88.78;;
64077;Laerm;51039;49.696;10.808;2023-11-19T03:37:18;82.77;35.78;103.90;;
64077;Laerm;51039;49.696;10.808;2023-11-19T03:39:44;44.04;34.76;79.21;;
64077;Laerm;51039;49.696;10.808;2023-11-19T03:42:10;38.04;35.24;44.58;;
64077;Laerm;51039;49.696;10.808;2023-11-19T03:44:38;37.00;35.18;43.48;;
64077;Laerm;51039;49.696;10.808;2023-11-19T03:47:03;52.62;35.07;88.70;;
64077;Laerm;51039;49.696;10.808;2023-11-19T03:49:29;36.55;35.22;44.66;;
64077;Laerm;51039;49.696;10.808;2023-11-19T03:51:54;49.54;35.04;85.51;;
64077;Laerm;51039;49.696;10.808;2023-11-19T03:54:19;36.26;34.84;37.40;;
64077;Laerm;51039;49.696;10.808;2023-11-19T03:56:46;57.95;35.08;94.13;;
64077;Laerm;51039;49.696;10.808;2023-11-19T03:59:12;44.06;34.29;79.49;;
64077;Laerm;51039;49.696;10.808;2023-11-19T04:01:37;36.45;34.81;51.34;;
64077;Laerm;51039;49.696;10.808;2023-11-19T04:04:03;36.39;34.69;38.96;;
64077;Laerm;51039;49.696;10.808;2023-11-19T04:06:28;44.07;34.87;79.49;;
64077;Laerm;51039;49.696;10.808;2023-11-19T04:08:53;86.75;35.06;105.12;;
64077;Laerm;51039;49.696;10.808;2023-11-19T04:11:19;72.03;34.78;101.80;;
64077;Laerm;51039;49.696;10.808;2023-11-19T04:13:44;82.36;34.43;108.80;;
64077;Laerm;51039;49.696;10.808;2023-11-19T04:16:09;80.93;34.38;101.79;;
64077;Laerm;51039;49.696;10.808;2023-11-19T04:18:35;84.83;34.39;105.46;;
64077;Laerm;51039;49.696;10.808;2023-11-19T04:21:00;83.79;34.13;104.62;;
64077;Laerm;51039;49.696;10.808;2023-11-19T04:23:26;82.30;33.78;105.16;;
64077;Laerm;51039;49.696;10.808;2023-11-19T04:25:51;84.07;34.15;104.07;;
64077;Laerm;51039;49.696;10.808;2023-11-19T04:28:16;91.38;34.06;107.82;;
64077;Laerm;51039;49.696;10.808;2023-11-19T04:30:42;81.21;33.68;104.78;;
64077;Laerm;51039;49.696;10.808;2023-11-19T04:33:08;96.78;33.99;106.31;;
64077;Laerm;51039;49.696;10.808;2023-11-19T04:35:33;101.74;34.23;109.24;;
64077;Laerm;51039;49.696;10.808;2023-11-19T04:37:58;87.60;33.62;108.73;;
64077;Laerm;51039;49.696;10.808;2023-11-19T04:40:24;87.57;33.63;109.59;;
64077;Laerm;51039;49.696;10.808;2023-11-19T04:42:49;102.14;34.31;110.77;;
64077;Laerm;51039;49.696;10.808;2023-11-19T04:45:15;98.51;33.67;110.38;;
64077;Laerm;51039;49.696;10.808;2023-11-19T04:47:42;94.56;33.48;110.41;;
64077;Laerm;51039;49.696;10.808;2023-11-19T04:50:07;96.27;33.47;110.79;;
64077;Laerm;51039;49.696;10.808;2023-11-19T04:52:37;34.74;33.00;38.13;;
64077;Laerm;51039;49.696;10.808;2023-11-19T04:55:04;34.61;33.36;36.16;;
64077;Laerm;51039;49.696;10.808;2023-11-19T04:57:29;34.63;32.99;36.02;;
64077;Laerm;51039;49.696;10.808;2023-11-19T04:59:54;43.84;33.15;79.49;;
64077;Laerm;51039;49.696;10.808;2023-11-19T05:02:20;34.42;33.05;36.15;;
64077;Laerm;51039;49.696;10.808;2023-11-19T05:04:45;34.43;33.03;36.14;;
64077;Laerm;51039;49.696;10.808;2023-11-19T05:07:11;34.43;32.93;35.83;;
64077;Laerm;51039;49.696;10.808;2023-11-19T05:09:37;34.49;33.14;36.02;;
64077;Laerm;51039;49.696;10.808;2023-11-19T05:12:02;34.49;33.12;36.03;;
64077;Laerm;51039;49.696;10.808;2023-11-19T05:14:28;34.24;32.96;36.16;;
64077;Laerm;51039;49.696;10.808;2023-11-19T05:16:54;34.23;32.91;37.76;;
64077;Laerm;51039;49.696;10.808;2023-11-19T05:19:19;34.49;33.07;37.12;;
64077;Laerm;51039;49.696;10.808;2023-11-19T05:21:44;34.08;32.24;36.05;;
64077;Laerm;51039;49.696;10.808;2023-11-19T05:24:10;33.77;32.38;35.48;;
64077;Laerm;51039;49.696;10.808;2023-11-19T05:26:37;33.89;32.55;35.70;;
64077;Laerm;51039;49.696;10.808;2023-11-19T05:29:03;43.74;32.65;79.49;;
64077;Laerm;51039;49.696;10.808;2023-11-19T05:31:28;93.23;32.62;105.94;;
64077;Laerm;51039;49.696;10.808;2023-11-19T05:33:53;99.45;32.85;110.92;;
64077;Laerm;51039;49.696;10.808;2023-11-19T05:36:19;92.28;32.53;108.84;;
64077;Laerm;51039;49.696;10.808;2023-11-19T05:38:44;95.45;32.71;110.70;;
64077;Laerm;51039;49.696;10.808;2023-11-19T05:41:10;92.86;32.65;109.88;;
64077;Laerm;51039;49.696;10.808;2023-11-19T05:43:36;91.86;32.69;109.12;;
64077;Laerm;51039;49.696;10.808;2023-11-19T05:46:03;90.53;32.52;109.25;;
64077;Laerm;51039;49.696;10.808;2023-11-19T05:48:29;78.53;32.31;94.11;;
64077;Laerm;51039;49.696;10.808;2023-11-19T05:50:54;97.96;32.41;110.46;;
64077;Laerm;51039;49.696;10.808;2023-11-19T05:53:20;94.28;32.25;106.47;;
64077;Laerm;51039;49.696;10.808;2023-11-19T05:55:45;93.44;32.42;107.58;;
64077;Laerm;51039;49.696;10.808;2023-11-19T05:58:27;33.51;32.42;34.68;;
64077;Laerm;51039;49.696;10.808;2023-11-19T06:00:55;33.54;32.35;34.65;;
64077;Laerm;51039;49.696;10.808;2023-11-19T06:03:21;33.54;32.36;34.62;;
64077;Laerm;51039;49.696;10.808;2023-11-19T06:05:47;51.58;32.21;85.58;;
64077;Laerm;51039;49.696;10.808;2023-11-19T06:08:13;75.14;32.33;103.74;;
64077;Laerm;51039;49.696;10.808;2023-11-19T06:10:44;72.14;32.25;104.32;;
64077;Laerm;51039;49.696;10.808;2023-11-19T06:13:11;49.35;32.46;85.51;;
64077;Laerm;51039;49.696;10.808;2023-11-19T06:15:37;33.53;32.31;34.58;;
64077;Laerm;51039;49.696;10.808;2023-11-19T06:18:03;54.81;32.18;89.03;;
64077;Laerm;51039;49.696;10.808;2023-11-19T06:20:29;75.23;31.97;102.39;;
64077;Laerm;51039;49.696;10.808;2023-11-19T06:22:55;82.39;31.74;110.01;;
64077;Laerm;51039;49.696;10.808;2023-11-19T06:25:22;33.30;32.17;34.30;;
64077;Laerm;51039;49.696;10.808;2023-11-19T06:27:47;33.29;32.02;34.42;;
64077;Laerm;51039;49.696;10.808;2023-11-19T06:30:12;43.75;32.13;79.49;;
64077;Laerm;51039;49.696;10.808;2023-11-19T06:32:38;77.71;32.19;101.81;;
64077;Laerm;51039;49.696;10.808;2023-11-19T06:35:04;79.28;32.27;105.42;;
64077;Laerm;51039;49.696;10.808;2023-11-19T06:37:30;33.72;32.54;35.06;;
64077;Laerm;51039;49.696;10.808;2023-11-19T06:39:55;49.41;31.32;85.51;;
64077;Laerm;51039;49.696;10.808;2023-11-19T06:42:21;81.88;31.78;105.68;;
64077;Laerm;51039;49.696;10.808;2023-11-19T06:44:46;94.37;32.14;108.58;;
64077;Laerm;51039;49.696;10.808;2023-11-19T06:47:11;94.36;32.41;109.90;;
64077;Laerm;51039;49.696;10.808;2023-11-19T06:49:36;96.69;32.22;109.63;;
64077;Laerm;51039;49.696;10.808;2023-11-19T06:52:02;96.64;32.30;108.01;;
64077;Laerm;51039;49.696;10.808;2023-11-19T06:54:28;95.11;80.20;107.34;;
64077;Laerm;51039;49.696;10.808;2023-11-19T06:56:53;101.14;32.38;109.96;;
64077;Laerm;51039;49.696;10.808;2023-11-19T06:59:18;102.75;32.47;111.04;;
64077;Laerm;51039;49.696;10.808;2023-11-19T07:01:44;101.56;32.19;111.48;;
64077;Laerm;51039;49.696;10.808;2023-11-19T07:04:12;72.49;31.72;99.28;;
64077;Laerm;51039;49.696;10.808;2023-11-19T07:06:38;74.70;31.75;99.69;;
64077;Laerm;51039;49.696;10.808;2023-11-19T07:09:06;93.70;32.12;110.32;;
64077;Laerm;51039;49.696;10.808;2023-11-19T07:11:41;93.18;32.53;110.56;;
64077;Laerm;51039;49.696;10.808;2023-11-19T07:14:07;88.58;32.12;109.80;;
64077;Laerm;51039;49.696;10.808;2023-11-19T07:16:33;86.55;32.58;109.43;;
64077;Laerm;51039;49.696;10.808;2023-11-19T07:19:05;86.18;32.24;109.02;;
64077;Laerm;51039;49.696;10.808;2023-11-19T07:21:31;86.48;32.47;108.68;;
64077;Laerm;51039;49.696;10.808;2023-11-19T07:23:58;89.93;32.51;109.75;;
64077;Laerm;51039;49.696;10.808;2023-11-19T07:26:24;95.51;32.43;111.54;;
64077;Laerm;51039;49.696;10.808;2023-11-19T07:28:50;93.13;32.42;111.04;;
64077;Laerm;51039;49.696;10.808;2023-11-19T07:31:16;76.16;32.16;98.83;;
64077;Laerm;51039;49.696;10.808;2023-11-19T07:33:41;77.05;32.31;106.00;;
64077;Laerm;51039;49.696;10.808;2023-11-19T07:36:10;77.25;32.28;106.94;;
64077;Laerm;51039;49.696;10.808;2023-11-19T07:38:36;82.46;32.28;108.18;;
64077;Laerm;51039;49.696;10.808;2023-11-19T07:41:01;82.61;32.33;107.37;;
64077;Laerm;51039;49.696;10.808;2023-11-19T07:43:27;81.06;32.13;103.94;;
64077;Laerm;51039;49.696;10.808;2023-11-19T07:45:52;74.97;32.80;106.32;;
64077;Laerm;51039;49.696;10.808;2023-11-19T07:48:18;75.79;33.25;102.51;;
64077;Laerm;51039;49.696;10.808;2023-11-19T07:50:48;76.84;33.93;106.94;;
64077;Laerm;51039;49.696;10.808;2023-11-19T07:53:16;74.70;34.57;106.26;;
64077;Laerm;51039;49.696;10.808;2023-11-19T07:55:41;87.13;35.17;109.79;;
64077;Laerm;51039;49.696;10.808;2023-11-19T07:58:06;80.60;35.80;107.14;;
64077;Laerm;51039;49.696;10.808;2023-11-19T08:00:32;68.86;36.25;101.67;;
64077;Laerm;51039;49.696;10.808;2023-11-19T08:02:58;56.08;36.57;91.15;;
64077;Laerm;51039;49.696;10.808;2023-11-19T08:05:23;78.58;35.34;106.96;;
64077;Laerm;51039;49.696;10.808;2023-11-19T08:07:50;36.80;34.31;45.74;;
64077;Laerm;51039;49.696;10.808;2023-11-19T08:10:16;59.54;34.21;88.52;;
64077;Laerm;51039;49.696;10.808;2023-11-19T08:12:41;98.71;33.58;109.92;;
64077;Laerm;51039;49.696;10.808;2023-11-19T08:15:07;92.96;32.61;110.92;;
64077;Laerm;51039;49.696;10.808;2023-11-19T08:17:33;85.76;42.90;109.19;;
64077;Laerm;51039;49.696;10.808;2023-11-19T08:19:58;82.35;40.03;108.58;;
64077;Laerm;51039;49.696;10.808;2023-11-19T08:22:25;89.83;38.00;109.84;;
64077;Laerm;51039;49.696;10.808;2023-11-19T08:24:51;78.10;36.40;104.43;;
64077;Laerm;51039;49.696;10.808;2023-11-19T08:27:16;83.17;36.00;107.69;;
64077;Laerm;51039;49.696;10.808;2023-11-19T08:29:41;93.89;35.51;108.76;;
64077;Laerm;51039;49.696;10.808;2023-11-19T08:32:07;76.29;35.44;96.52;;
64077;Laerm;51039;49.696;10.808;2023-11-19T08:34:32;79.32;35.77;95.98;;
64077;Laerm;51039;49.696;10.808;2023-11-19T08:36:57;80.91;37.20;105.63;;
64077;Laerm;51039;49.696;10.808;2023-11-19T08:39:23;78.89;37.26;100.21;;
64077;Laerm;51039;49.696;10.808;2023-11-19T08:41:49;93.13;36.55;110.07;;
64077;Laerm;51039;49.696;10.808;2023-11-19T08:44:14;101.07;38.27;110.54;;
64077;Laerm;51039;49.696;10.808;2023-11-19T08:46:47;84.35;37.91;110.04;;
64077;Laerm;51039;49.696;10.808;2023-11-19T08:49:12;84.69;37.36;107.17;;
64077;Laerm;51039;49.696;10.808;2023-11-19T08:51:37;90.37;37.35;108.51;;
64077;Laerm;51039;49.696;10.808;2023-11-19T08:54:03;98.49;37.62;107.30;;
64077;Laerm;51039;49.696;10.808;2023-11-19T08:56:28;81.13;38.10;100.81;;
64077;Laerm;51039;49.696;10.808;2023-11-19T08:58:57;89.33;37.64;108.63;;
64077;Laerm;51039;49.696;10.808;2023-11-19T09:01:23;94.39;37.82;109.95;;
64077;Laerm;51039;49.696;10.808;2023-11-19T09:03:49;83.36;34.65;106.62;;
64077;Laerm;51039;49.696;10.808;2023-11-19T09:06:15;85.21;36.80;102.45;;
64077;Laerm;51039;49.696;10.808;2023-11-19T09:08:42;81.10;37.03;98.91;;
64077;Laerm;51039;49.696;10.808;2023-11-19T09:11:07;83.61;36.54;109.32;;
64077;Laerm;51039;49.696;10.808;2023-11-19T09:13:35;93.53;36.79;109.55;;
64077;Laerm;51039;49.696;10.808;2023-11-19T09:16:00;77.60;37.09;101.07;;
64077;Laerm;51039;49.696;10.808;2023-11-19T09:18:31;82.79;37.08;104.39;;
64077;Laerm;51039;49.696;10.808;2023-11-19T09:20:57;87.66;37.31;108.67;;
64077;Laerm;51039;49.696;10.808;2023-11-19T09:23:23;87.12;36.58;107.14;;
64077;Laerm;51039;49.696;10.808;2023-11-19T09:25:50;89.49;36.77;110.60;;
64077;Laerm;51039;49.696;10.808;2023-11-19T09:28:16;73.86;37.31;98.48;;
64077;Laerm;51039;49.696;10.808;2023-11-19T09:30:41;84.18;37.59;99.33;;
64077;Laerm;51039;49.696;10.808;2023-11-19T09:33:07;81.56;37.23;99.03;;
64077;Laerm;51039;49.696;10.808;2023-11-19T09:35:32;75.68;37.12;98.08;;
64077;Laerm;51039;49.696;10.808;2023-11-19T09:37:57;80.12;37.65;99.41;;
64077;Laerm;51039;49.696;10.808;2023-11-19T09:40:24;87.66;38.94;102.87;;
64077;Laerm;51039;49.696;10.808;2023-11-19T09:42:50;85.32;41.53;101.09;;
64077;Laerm;51039;49.696;10.808;2023-11-19T09:45:17;57.13;44.20;89.37;;
64077;Laerm;51039;49.696;10.808;2023-11-19T09:47:44;70.03;46.17;97.32;;
64077;Laerm;51039;49.696;10.808;2023-11-19T09:50:16;73.92;47.03;96.65;;
64077;Laerm;51039;49.696;10.808;2023-11-19T09:52:43;83.92;48.37;99.84;;
64077;Laerm;51039;49.696;10.808;2023-11-19T09:55:09;64.87;47.50;94.74;;
64077;Laerm;51039;49.696;10.808;2023-11-19T09:57:35;77.91;47.41;97.57;;
64077;Laerm;51039;49.696;10.808;2023-11-19T10:00:04;74.77;47.08;97.18;;
64077;Laerm;51039;49.696;10.808;2023-11-19T10:02:33;54.84;45.97;89.78;;
64077;Laerm;51039;49.696;10.808;2023-11-19T10:05:06;73.83;45.63;96.85;;
64077;Laerm;51039;49.696;10.808;2023-11-19T10:07:32;51.30;42.98;85.51;;
64077;Laerm;51039;49.696;10.808;2023-11-19T10:09:59;86.25;40.39;102.31;;
64077;Laerm;51039;49.696;10.808;2023-11-19T10:12:26;85.45;38.51;105.64;;
64077;Laerm;51039;49.696;10.808;2023-11-19T10:14:52;77.62;35.16;96.52;;
64077;Laerm;51039;49.696;10.808;2023-11-19T10:17:19;33.16;31.21;37.89;;
64077;Laerm;51039;49.696;10.808;2023-11-19T10:19:44;32.30;30.87;33.80;;
64077;Laerm;51039;49.696;10.808;2023-11-19T10:22:10;82.87;31.35;87.36;;
64077;Laerm;51039;49.696;10.808;2023-11-19T10:24:36;83.84;75.77;87.38;;
64077;Laerm;51039;49.696;10.808;2023-11-19T10:27:06;84.21;76.40;87.63;;
64077;Laerm;51039;49.696;10.808;2023-11-19T10:29:36;83.04;69.94;88.00;;
64077;Laerm;51039;49.696;10.808;2023-11-19T10:32:01;73.01;65.98;75.66;;
64077;Laerm;51039;49.696;10.808;2023-11-19T10:34:27;74.97;68.09;77.17;;
64077;Laerm;51039;49.696;10.808;2023-11-19T10:36:53;75.06;70.91;77.01;;
64077;Laerm;51039;49.696;10.808;2023-11-19T10:39:18;74.61;67.16;76.73;;
64077;Laerm;51039;49.696;10.808;2023-11-19T10:41:46;74.52;67.84;76.85;;
64077;Laerm;51039;49.696;10.808;2023-11-19T10:44:11;74.44;62.12;76.87;;
64077;Laerm;51039;49.696;10.808;2023-11-19T10:49:04;76.12;17.29;82.46;;
64077;Laerm;51039;49.696;10.808;2023-11-19T10:51:29;73.01;6.21;76.68;;
64077;Laerm;51039;49.696;10.808;2023-11-19T10:54:04;76.00;-1.45;87.86;;
64077;Laerm;51039;49.696;10.808;2023-11-19T10:56:31;78.51;5.02;82.69;;
64077;Laerm;51039;49.696;10.808;2023-11-19T10:58:59;78.30;2.45;82.67;;
64077;Laerm;51039;49.696;10.808;2023-11-19T11:01:28;78.05;1.95;82.62;;
64077;Laerm;51039;49.696;10.808;2023-11-19T11:03:59;90.74;11.80;95.14;;
64077;Laerm;51039;49.696;10.808;2023-11-19T11:06:26;93.45;80.17;95.15;;
64077;Laerm;51039;49.696;10.808;2023-11-19T11:08:53;93.48;73.72;95.24;;
64077;Laerm;51039;49.696;10.808;2023-11-19T11:11:19;93.46;71.59;95.26;;
64077;Laerm;51039;49.696;10.808;2023-11-19T11:13:50;93.53;67.55;95.19;;
64077;Laerm;51039;49.696;10.808;2023-11-19T11:16:18;93.61;77.63;95.22;;
64077;Laerm;51039;49.696;10.808;2023-11-19T11:18:45;93.63;80.38;95.36;;
64077;Laerm;51039;49.696;10.808;2023-11-19T11:21:15;93.68;82.02;95.24;;
64077;Laerm;51039;49.696;10.808;2023-11-19T11:26:35;89.03;1.17;95.12;;
64077;Laerm;51039;49.696;10.808;2023-11-19T11:31:45;87.82;78.19;89.48;;
64077;Laerm;51039;49.696;10.808;2023-11-19T11:34:26;91.38;80.20;95.59;;
64077;Laerm;51039;49.696;10.808;2023-11-19T11:39:50;93.85;85.14;95.61;;
64077;Laerm;51039;49.696;10.808;2023-11-19T11:45:06;86.85;72.98;91.49;;
64077;Laerm;51039;49.696;10.808;2023-11-19T11:50:19;82.08;76.67;88.63;;
64077;Laerm;51039;49.696;10.808;2023-11-19T11:55:25;82.23;77.15;83.41;;
64077;Laerm;51039;49.696;10.808;2023-11-19T11:57:51;106.44;36.27;113.75;;
64077;Laerm;51039;49.696;10.808;2023-11-19T12:00:39;82.25;76.70;83.42;;
64077;Laerm;51039;49.696;10.808;2023-11-19T12:03:06;84.12;77.79;89.35;;
64077;Laerm;51039;49.696;10.808;2023-11-19T12:05:32;88.14;82.14;89.38;;
64077;Laerm;51039;49.696;10.808;2023-11-19T12:08:06;92.42;81.44;95.31;;
64077;Laerm;51039;49.696;10.808;2023-11-19T12:10:53;94.09;85.99;95.48;;
64077;Laerm;51039;49.696;10.808;2023-11-19T12:13:20;100.69;35.69;113.10;;
64077;Laerm;51039;49.696;10.808;2023-11-19T12:18:24;84.33;35.65;107.79;;
64077;Laerm;51039;49.696;10.808;2023-11-19T12:20:51;80.02;35.41;100.32;;
64077;Laerm;51039;49.696;10.808;2023-11-19T12:23:17;39.79;35.51;72.91;;
64077;Laerm;51039;49.696;10.808;2023-11-19T12:25:42;92.17;35.72;101.82;;
64077;Laerm;51039;49.696;10.808;2023-11-19T12:28:14;81.95;-32.96;100.93;;
64077;Laerm;51039;49.696;10.808;2023-11-19T12:30:39;36.92;35.69;38.02;;
64077;Laerm;51039;49.696;10.808;2023-11-19T12:33:11;36.97;35.65;38.05;;
64077;Laerm;51039;49.696;10.808;2023-11-19T12:35:44;36.97;35.87;38.21;;
64077;Laerm;51039;49.696;10.808;2023-11-19T12:38:23;36.97;35.68;38.19;;
64077;Laerm;51039;49.696;10.808;2023-11-19T12:41:05;36.99;35.93;38.22;;
64077;Laerm;51039;49.696;10.808;2023-11-19T12:43:31;37.02;35.72;38.17;;
64077;Laerm;51039;49.696;10.808;2023-11-19T12:45:57;37.09;35.90;38.15;;
64077;Laerm;51039;49.696;10.808;2023-11-19T12:48:23;37.18;35.89;38.21;;
64077;Laerm;51039;49.696;10.808;2023-11-19T12:50:57;37.31;36.16;38.41;;
64077;Laerm;51039;49.696;10.808;2023-11-19T12:53:25;37.54;36.34;38.97;;
64077;Laerm;51039;49.696;10.808;2023-11-19T12:55:53;37.90;36.68;39.01;;
64077;Laerm;51039;49.696;10.808;2023-11-19T12:58:33;38.36;37.11;39.81;;
64077;Laerm;51039;49.696;10.808;2023-11-19T13:01:09;38.96;37.56;40.98;;
64077;Laerm;51039;49.696;10.808;2023-11-19T13:03:38;39.61;38.26;41.63;;
64077;Laerm;51039;49.696;10.808;2023-11-19T13:06:11;40.00;38.57;41.91;;
64077;Laerm;51039;49.696;10.808;2023-11-19T13:08:41;40.21;39.04;42.33;;
64077;Laerm;51039;49.696;10.808;2023-11-19T13:11:07;40.29;39.03;42.73;;
64077;Laerm;51039;49.696;10.808;2023-11-19T13:13:56;40.32;39.05;41.43;;
64077;Laerm;51039;49.696;10.808;2023-11-19T13:16:22;102.27;39.35;113.31;;
64077;Laerm;51039;49.696;10.808;2023-11-19T13:18:47;82.60;76.21;93.32;;
64077;Laerm;51039;49.696;10.808;2023-11-19T13:21:13;81.64;74.34;83.21;;
64077;Laerm;51039;49.696;10.808;2023-11-19T13:23:38;81.62;74.06;94.62;;
64077;Laerm;51039;49.696;10.808;2023-11-19T13:26:04;85.68;75.55;98.04;;
64077;Laerm;51039;49.696;10.808;2023-11-19T13:28:29;85.01;72.45;97.16;;
64077;Laerm;51039;49.696;10.808;2023-11-19T13:30:54;86.58;69.41;99.61;;
64077;Laerm;51039;49.696;10.808;2023-11-19T13:33:20;88.30;39.15;105.19;;
64077;Laerm;51039;49.696;10.808;2023-11-19T13:35:45;40.24;38.85;42.33;;
64077;Laerm;51039;49.696;10.808;2023-11-19T13:38:11;40.25;39.14;42.67;;
64077;Laerm;51039;49.696;10.808;2023-11-19T13:40:36;40.20;39.07;42.41;;
64077;Laerm;51039;49.696;10.808;2023-11-19T13:43:01;40.16;39.07;42.20;;
64077;Laerm;51039;49.696;10.808;2023-11-19T13:45:27;40.15;39.05;41.09;;
64077;Laerm;51039;49.696;10.808;2023-11-19T13:47:52;40.17;39.08;41.25;;